Piedmont Triad International

Airport
ICAO code: 
KGSO
Summary
ICAO Region: 
NAM
Territory: 
Location: 
Friendship Township, Guilford County, Greensboro, North Carolina,
Elevation: 
925 ft
Coordinates: 
Aerial View: 
36° 5' 52.084" N, 79° 56' 14.286" W
Metar
Observation
KGSO 040654Z 24003KT 10SM BKN250 11/03 A3000 RMK AO2 SLP153 T01110033
Station
Greensboro, Piedmont Triad International Airport
Date/Time
2021-12-04 06:54:00
Wind direction
240°
Wind speed
03 kts
Lowest cloud amount
broken clouds
Temperature
11.1°C
Dew point
3.3°C
Humidity
58%
Weather condition
n/a

Description

Piedmont Triad International Airport (commonly referred to as "PTIA" or just "PTI") is an airport just west of Greensboro, serving Greensboro, High Point and Winston-Salem in North Carolina.

Climatology

Humid “subtropical” climate (Köppen climate classification Cfa) - characterized by hot, humid summers and cool winters. Significant amounts of precipitation occur in all seasons in most areas. Winter rainfall (and sometimes snowfall) is associated with large storms that the westerlies steer from west to east. Most summer rainfall occurs during thunderstorms and occasional tropical storms (hurricanes). Tornadoes are a threat in the Spring.

Runways

Designator Length Width Surface Rops
14/32 1945 46 ASP Yes/Yes
05L/23L 2743 46 ASPH Yes/Yes
05R/23L 3048 46 ASPH-G Yes/Yes
Airport map: 
Aerial View: 

SKYbrary Partners:

Safety knowledge contributed by: